sensor_id;sensor_type;location;lat;lon;timestamp;pressure;altitude;pressure_sealevel;temperature;humidity
73332;BME280;61560;33.718;73.040;2023-04-25T00:00:18;94608.91;;;21.07;42.28
73332;BME280;61560;33.718;73.040;2023-04-25T00:02:46;94617.28;;;21.07;42.29
73332;BME280;61560;33.718;73.040;2023-04-25T00:05:13;94617.56;;;21.09;42.52
73332;BME280;61560;33.718;73.040;2023-04-25T00:07:41;94624.63;;;21.10;42.10
73332;BME280;61560;33.718;73.040;2023-04-25T00:10:11;94631.28;;;21.12;41.67
73332;BME280;61560;33.718;73.040;2023-04-25T00:12:40;94616.78;;;21.08;41.62
73332;BME280;61560;33.718;73.040;2023-04-25T00:15:08;94618.59;;;21.11;41.40
73332;BME280;61560;33.718;73.040;2023-04-25T00:17:36;94625.22;;;21.14;41.49
73332;BME280;61560;33.718;73.040;2023-04-25T00:20:05;94637.81;;;21.09;41.25
73332;BME280;61560;33.718;73.040;2023-04-25T00:22:33;94632.44;;;21.06;41.21
73332;BME280;61560;33.718;73.040;2023-04-25T00:25:00;94643.56;;;21.06;41.31
73332;BME280;61560;33.718;73.040;2023-04-25T00:27:28;94645.63;;;21.05;41.55
73332;BME280;61560;33.718;73.040;2023-04-25T00:29:55;94655.22;;;21.04;41.87
73332;BME280;61560;33.718;73.040;2023-04-25T00:32:22;94657.41;;;21.00;42.69
73332;BME280;61560;33.718;73.040;2023-04-25T00:34:49;94653.84;;;21.00;42.96
73332;BME280;61560;33.718;73.040;2023-04-25T00:37:22;94660.66;;;20.99;43.39
73332;BME280;61560;33.718;73.040;2023-04-25T00:39:50;94663.19;;;20.97;43.97
73332;BME280;61560;33.718;73.040;2023-04-25T00:42:20;94661.16;;;20.97;44.28
73332;BME280;61560;33.718;73.040;2023-04-25T00:44:47;94667.97;;;20.96;44.61
73332;BME280;61560;33.718;73.040;2023-04-25T00:47:15;94664.13;;;20.94;45.10
73332;BME280;61560;33.718;73.040;2023-04-25T00:49:42;94669.81;;;20.99;45.13
73332;BME280;61560;33.718;73.040;2023-04-25T00:52:12;94667.59;;;21.03;45.35
73332;BME280;61560;33.718;73.040;2023-04-25T00:54:39;94669.47;;;21.12;44.81
73332;BME280;61560;33.718;73.040;2023-04-25T00:57:09;94680.03;;;21.23;44.43
73332;BME280;61560;33.718;73.040;2023-04-25T00:59:37;94670.22;;;21.27;44.31
73332;BME280;61560;33.718;73.040;2023-04-25T01:02:05;94673.56;;;21.31;43.83
73332;BME280;61560;33.718;73.040;2023-04-25T01:04:32;94686.53;;;21.34;43.98
73332;BME280;61560;33.718;73.040;2023-04-25T01:06:59;94681.44;;;21.33;43.90
73332;BME280;61560;33.718;73.040;2023-04-25T01:09:26;94682.31;;;21.39;43.53
73332;BME280;61560;33.718;73.040;2023-04-25T01:11:54;94685.44;;;21.46;43.50
73332;BME280;61560;33.718;73.040;2023-04-25T01:14:21;94686.13;;;21.61;43.49
73332;BME280;61560;33.718;73.040;2023-04-25T01:16:48;94687.47;;;21.66;43.92
73332;BME280;61560;33.718;73.040;2023-04-25T01:19:17;94680.28;;;21.79;44.05
73332;BME280;61560;33.718;73.040;2023-04-25T01:21:46;94684.97;;;21.88;43.76
73332;BME280;61560;33.718;73.040;2023-04-25T01:24:13;94689.34;;;21.94;43.68
73332;BME280;61560;33.718;73.040;2023-04-25T01:26:42;94694.31;;;22.05;43.59
73332;BME280;61560;33.718;73.040;2023-04-25T01:29:20;94683.47;;;22.13;43.55
73332;BME280;61560;33.718;73.040;2023-04-25T01:31:49;94689.31;;;22.15;44.01
73332;BME280;61560;33.718;73.040;2023-04-25T01:34:16;94693.53;;;22.25;44.37
73332;BME280;61560;33.718;73.040;2023-04-25T01:36:43;94691.56;;;22.31;44.78
73332;BME280;61560;33.718;73.040;2023-04-25T01:39:12;94693.41;;;22.39;44.62
73332;BME280;61560;33.718;73.040;2023-04-25T01:41:39;94691.00;;;22.52;43.72
73332;BME280;61560;33.718;73.040;2023-04-25T01:44:06;94690.41;;;22.68;42.70
73332;BME280;61560;33.718;73.040;2023-04-25T01:46:34;94696.19;;;22.91;42.35
73332;BME280;61560;33.718;73.040;2023-04-25T01:49:02;94684.41;;;23.12;40.96
73332;BME280;61560;33.718;73.040;2023-04-25T01:51:30;94693.75;;;23.35;39.91
73332;BME280;61560;33.718;73.040;2023-04-25T01:53:58;94700.78;;;23.62;39.59
73332;BME280;61560;33.718;73.040;2023-04-25T01:56:30;94694.03;;;23.90;38.27
73332;BME280;61560;33.718;73.040;2023-04-25T01:58:58;94701.84;;;24.28;39.13
73332;BME280;61560;33.718;73.040;2023-04-25T02:01:41;94702.25;;;25.13;37.63
73332;BME280;61560;33.718;73.040;2023-04-25T02:04:20;94695.91;;;26.66;35.56
73332;BME280;61560;33.718;73.040;2023-04-25T02:06:49;94699.03;;;28.30;33.26
73332;BME280;61560;33.718;73.040;2023-04-25T02:09:16;94692.19;;;29.76;28.96
73332;BME280;61560;33.718;73.040;2023-04-25T02:11:49;94695.97;;;31.04;26.33
73332;BME280;61560;33.718;73.040;2023-04-25T02:14:52;94699.63;;;32.23;25.00
73332;BME280;61560;33.718;73.040;2023-04-25T02:17:39;94699.47;;;33.15;24.49
73332;BME280;61560;33.718;73.040;2023-04-25T02:20:06;94703.38;;;33.70;23.33
73332;BME280;61560;33.718;73.040;2023-04-25T02:22:35;94707.88;;;34.26;21.73
73332;BME280;61560;33.718;73.040;2023-04-25T02:25:06;94711.06;;;34.53;21.64
73332;BME280;61560;33.718;73.040;2023-04-25T02:27:34;94705.28;;;35.23;21.34
73332;BME280;61560;33.718;73.040;2023-04-25T02:30:01;94718.22;;;35.81;20.73
73332;BME280;61560;33.718;73.040;2023-04-25T02:32:29;94709.94;;;35.68;20.57
73332;BME280;61560;33.718;73.040;2023-04-25T02:34:56;94719.97;;;36.01;20.44
73332;BME280;61560;33.718;73.040;2023-04-25T02:37:26;94724.44;;;35.87;21.42
73332;BME280;61560;33.718;73.040;2023-04-25T02:39:55;94717.38;;;35.31;21.83
73332;BME280;61560;33.718;73.040;2023-04-25T02:42:23;94731.00;;;34.38;22.61
73332;BME280;61560;33.718;73.040;2023-04-25T02:44:50;94731.03;;;34.23;22.68
73332;BME280;61560;33.718;73.040;2023-04-25T02:47:18;94739.56;;;34.08;22.73
73332;BME280;61560;33.718;73.040;2023-04-25T02:49:45;94737.97;;;33.39;22.85
73332;BME280;61560;33.718;73.040;2023-04-25T02:52:12;94746.53;;;32.95;23.46
73332;BME280;61560;33.718;73.040;2023-04-25T02:54:42;94751.94;;;32.43;23.65
73332;BME280;61560;33.718;73.040;2023-04-25T02:57:11;94747.88;;;32.02;24.61
73332;BME280;61560;33.718;73.040;2023-04-25T02:59:38;94757.53;;;31.45;23.88
73332;BME280;61560;33.718;73.040;2023-04-25T03:02:05;94766.53;;;31.23;24.58
73332;BME280;61560;33.718;73.040;2023-04-25T03:04:32;94763.69;;;30.76;25.71
73332;BME280;61560;33.718;73.040;2023-04-25T03:07:00;94771.25;;;30.34;25.62
73332;BME280;61560;33.718;73.040;2023-04-25T03:09:27;94782.41;;;30.01;26.66
73332;BME280;61560;33.718;73.040;2023-04-25T03:11:54;94787.03;;;29.85;26.24
73332;BME280;61560;33.718;73.040;2023-04-25T03:14:21;94789.97;;;29.61;26.87
73332;BME280;61560;33.718;73.040;2023-04-25T03:16:48;94795.31;;;28.95;27.53
73332;BME280;61560;33.718;73.040;2023-04-25T03:19:17;94797.59;;;28.54;27.63
73332;BME280;61560;33.718;73.040;2023-04-25T03:21:44;94807.31;;;28.34;28.23
73332;BME280;61560;33.718;73.040;2023-04-25T03:24:12;94814.78;;;28.08;28.81
73332;BME280;61560;33.718;73.040;2023-04-25T03:26:40;94825.22;;;27.83;30.17
73332;BME280;61560;33.718;73.040;2023-04-25T03:29:08;94823.59;;;27.64;31.21
73332;BME280;61560;33.718;73.040;2023-04-25T03:31:38;94813.97;;;27.83;30.98
73332;BME280;61560;33.718;73.040;2023-04-25T03:34:04;94813.06;;;27.99;30.90
73332;BME280;61560;33.718;73.040;2023-04-25T03:36:33;94826.84;;;28.27;30.82
73332;BME280;61560;33.718;73.040;2023-04-25T03:39:00;94833.97;;;28.33;30.34
73332;BME280;61560;33.718;73.040;2023-04-25T03:41:30;94823.50;;;28.53;29.70
73332;BME280;61560;33.718;73.040;2023-04-25T03:44:03;94833.44;;;28.59;29.36
73332;BME280;61560;33.718;73.040;2023-04-25T03:46:30;94833.09;;;28.87;28.47
73332;BME280;61560;33.718;73.040;2023-04-25T03:48:57;94833.66;;;29.91;27.59
73332;BME280;61560;33.718;73.040;2023-04-25T03:51:35;94839.28;;;31.02;26.04
73332;BME280;61560;33.718;73.040;2023-04-25T03:54:02;94833.56;;;32.16;25.03
73332;BME280;61560;33.718;73.040;2023-04-25T03:56:32;94844.25;;;33.51;23.83
73332;BME280;61560;33.718;73.040;2023-04-25T03:59:07;94837.50;;;34.90;21.78
73332;BME280;61560;33.718;73.040;2023-04-25T04:01:34;94847.56;;;35.93;21.28
73332;BME280;61560;33.718;73.040;2023-04-25T04:04:01;94847.69;;;36.59;20.28
73332;BME280;61560;33.718;73.040;2023-04-25T04:06:29;94846.66;;;37.06;19.95
73332;BME280;61560;33.718;73.040;2023-04-25T04:09:03;94841.16;;;37.69;19.40
73332;BME280;61560;33.718;73.040;2023-04-25T04:11:34;94834.84;;;38.50;19.14
73332;BME280;61560;33.718;73.040;2023-04-25T04:14:04;94840.28;;;39.40;17.94
73332;BME280;61560;33.718;73.040;2023-04-25T04:16:32;94840.34;;;40.09;17.63
73332;BME280;61560;33.718;73.040;2023-04-25T04:18:59;94835.41;;;40.50;17.50
73332;BME280;61560;33.718;73.040;2023-04-25T04:21:26;94845.13;;;41.18;17.03
73332;BME280;61560;33.718;73.040;2023-04-25T04:23:53;94844.50;;;40.98;16.84
73332;BME280;61560;33.718;73.040;2023-04-25T04:26:21;94858.44;;;41.44;16.74
73332;BME280;61560;33.718;73.040;2023-04-25T04:28:56;94847.31;;;42.15;16.13
73332;BME280;61560;33.718;73.040;2023-04-25T04:31:46;94854.28;;;42.01;16.57
73332;BME280;61560;33.718;73.040;2023-04-25T04:34:14;94846.06;;;42.18;16.01
73332;BME280;61560;33.718;73.040;2023-04-25T04:36:42;94856.16;;;42.64;16.09
73332;BME280;61560;33.718;73.040;2023-04-25T04:39:12;94856.53;;;43.04;15.99
73332;BME280;61560;33.718;73.040;2023-04-25T04:41:53;94856.09;;;43.45;15.07
73332;BME280;61560;33.718;73.040;2023-04-25T04:44:34;94851.75;;;43.21;15.47
73332;BME280;61560;33.718;73.040;2023-04-25T04:47:25;94850.72;;;43.28;15.31
73332;BME280;61560;33.718;73.040;2023-04-25T04:49:59;94852.00;;;43.25;15.44
73332;BME280;61560;33.718;73.040;2023-04-25T04:52:50;94869.53;;;43.17;15.27
73332;BME280;61560;33.718;73.040;2023-04-25T04:55:44;94866.53;;;43.27;15.08
73332;BME280;61560;33.718;73.040;2023-04-25T04:58:44;94854.91;;;43.50;15.02
73332;BME280;61560;33.718;73.040;2023-04-25T05:01:40;94860.50;;;43.34;15.07
73332;BME280;61560;33.718;73.040;2023-04-25T05:04:40;94854.28;;;43.63;14.81
73332;BME280;61560;33.718;73.040;2023-04-25T05:07:27;94857.25;;;43.28;15.25
73332;BME280;61560;33.718;73.040;2023-04-25T05:10:10;94852.16;;;43.52;15.43
73332;BME280;61560;33.718;73.040;2023-04-25T05:13:01;94854.13;;;43.61;15.52
73332;BME280;61560;33.718;73.040;2023-04-25T05:15:44;94848.69;;;43.78;15.06
73332;BME280;61560;33.718;73.040;2023-04-25T05:18:32;94845.19;;;43.80;15.31
73332;BME280;61560;33.718;73.040;2023-04-25T05:21:27;94852.50;;;43.95;14.91
73332;BME280;61560;33.718;73.040;2023-04-25T05:24:20;94850.34;;;44.07;15.00
73332;BME280;61560;33.718;73.040;2023-04-25T05:27:01;94845.53;;;44.11;14.81
73332;BME280;61560;33.718;73.040;2023-04-25T05:29:43;94837.16;;;44.04;14.70
73332;BME280;61560;33.718;73.040;2023-04-25T05:32:26;94837.44;;;44.21;14.43
73332;BME280;61560;33.718;73.040;2023-04-25T05:34:54;94840.78;;;44.29;14.41
73332;BME280;61560;33.718;73.040;2023-04-25T05:37:44;94840.72;;;44.41;14.53
73332;BME280;61560;33.718;73.040;2023-04-25T05:40:14;94848.88;;;44.19;14.54
73332;BME280;61560;33.718;73.040;2023-04-25T05:42:44;94851.13;;;43.59;14.02
73332;BME280;61560;33.718;73.040;2023-04-25T05:45:50;94857.03;;;43.01;13.52
73332;BME280;61560;33.718;73.040;2023-04-25T05:48:30;94851.72;;;42.39;14.01
73332;BME280;61560;33.718;73.040;2023-04-25T05:51:09;94858.41;;;41.65;13.97
73332;BME280;61560;33.718;73.040;2023-04-25T05:53:47;94851.16;;;41.43;14.42
73332;BME280;61560;33.718;73.040;2023-04-25T05:56:15;94861.69;;;41.50;14.56
73332;BME280;61560;33.718;73.040;2023-04-25T05:58:42;94859.34;;;41.58;14.46
73332;BME280;61560;33.718;73.040;2023-04-25T06:01:12;94850.13;;;41.38;14.95
73332;BME280;61560;33.718;73.040;2023-04-25T06:03:38;94856.56;;;40.75;15.34
73332;BME280;61560;33.718;73.040;2023-04-25T06:06:11;94857.84;;;40.13;15.96
73332;BME280;61560;33.718;73.040;2023-04-25T06:08:38;94851.72;;;39.21;16.66
73332;BME280;61560;33.718;73.040;2023-04-25T06:11:05;94855.03;;;39.08;17.25
73332;BME280;61560;33.718;73.040;2023-04-25T06:13:32;94860.16;;;38.64;17.12
73332;BME280;61560;33.718;73.040;2023-04-25T06:15:59;94850.25;;;38.02;17.79
73332;BME280;61560;33.718;73.040;2023-04-25T06:18:26;94858.75;;;37.83;18.00
73332;BME280;61560;33.718;73.040;2023-04-25T06:20:53;94856.31;;;37.62;18.14
73332;BME280;61560;33.718;73.040;2023-04-25T06:23:20;94863.56;;;37.29;17.94
73332;BME280;61560;33.718;73.040;2023-04-25T06:25:52;94858.44;;;37.10;18.96
73332;BME280;61560;33.718;73.040;2023-04-25T06:28:20;94869.84;;;36.93;18.64
73332;BME280;61560;33.718;73.040;2023-04-25T06:30:48;94858.09;;;36.64;18.54
73332;BME280;61560;33.718;73.040;2023-04-25T06:33:19;94859.72;;;36.26;19.22
73332;BME280;61560;33.718;73.040;2023-04-25T06:35:47;94859.63;;;36.16;19.49
73332;BME280;61560;33.718;73.040;2023-04-25T06:38:17;94852.31;;;35.98;19.55
73332;BME280;61560;33.718;73.040;2023-04-25T06:40:47;94858.97;;;35.61;18.96
73332;BME280;61560;33.718;73.040;2023-04-25T06:43:16;94859.81;;;35.38;18.83
73332;BME280;61560;33.718;73.040;2023-04-25T06:46:00;94857.56;;;35.29;19.80
73332;BME280;61560;33.718;73.040;2023-04-25T06:48:31;94851.84;;;35.29;19.64
73332;BME280;61560;33.718;73.040;2023-04-25T06:50:58;94841.78;;;35.36;19.36
73332;BME280;61560;33.718;73.040;2023-04-25T06:53:26;94842.19;;;35.25;19.72
73332;BME280;61560;33.718;73.040;2023-04-25T06:56:02;94840.69;;;35.16;19.81
73332;BME280;61560;33.718;73.040;2023-04-25T06:58:40;94837.50;;;35.05;19.49
73332;BME280;61560;33.718;73.040;2023-04-25T07:01:12;94842.44;;;34.97;19.84
73332;BME280;61560;33.718;73.040;2023-04-25T07:03:40;94831.28;;;34.76;19.49
73332;BME280;61560;33.718;73.040;2023-04-25T07:06:13;94833.34;;;34.91;20.46
73332;BME280;61560;33.718;73.040;2023-04-25T07:08:42;94831.28;;;34.91;19.82
73332;BME280;61560;33.718;73.040;2023-04-25T07:11:08;94834.69;;;34.82;20.01
73332;BME280;61560;33.718;73.040;2023-04-25T07:13:37;94830.16;;;34.79;20.09
73332;BME280;61560;33.718;73.040;2023-04-25T07:16:04;94820.31;;;34.73;19.94
73332;BME280;61560;33.718;73.040;2023-04-25T07:18:33;94825.22;;;34.72;19.97
73332;BME280;61560;33.718;73.040;2023-04-25T07:21:01;94820.88;;;34.41;19.82
73332;BME280;61560;33.718;73.040;2023-04-25T07:23:29;94823.00;;;34.25;20.60
73332;BME280;61560;33.718;73.040;2023-04-25T07:25:59;94817.47;;;34.12;21.00
73332;BME280;61560;33.718;73.040;2023-04-25T07:28:27;94818.41;;;34.00;21.03
73332;BME280;61560;33.718;73.040;2023-04-25T07:30:54;94821.41;;;33.79;20.80
73332;BME280;61560;33.718;73.040;2023-04-25T07:33:21;94809.25;;;33.63;21.14
73332;BME280;61560;33.718;73.040;2023-04-25T07:35:49;94804.53;;;33.81;21.54
73332;BME280;61560;33.718;73.040;2023-04-25T07:38:18;94805.88;;;33.95;21.25
73332;BME280;61560;33.718;73.040;2023-04-25T07:40:49;94808.53;;;33.93;20.58
73332;BME280;61560;33.718;73.040;2023-04-25T07:43:17;94797.16;;;33.85;20.62
73332;BME280;61560;33.718;73.040;2023-04-25T07:45:57;94796.22;;;33.91;21.14
73332;BME280;61560;33.718;73.040;2023-04-25T07:48:27;94791.09;;;33.89;20.73
73332;BME280;61560;33.718;73.040;2023-04-25T07:50:54;94799.63;;;33.74;20.92
73332;BME280;61560;33.718;73.040;2023-04-25T07:53:21;94794.28;;;33.70;21.06
73332;BME280;61560;33.718;73.040;2023-04-25T07:55:59;94793.47;;;33.47;20.46
73332;BME280;61560;33.718;73.040;2023-04-25T07:58:28;94792.00;;;33.54;20.53
73332;BME280;61560;33.718;73.040;2023-04-25T08:00:59;94791.75;;;33.37;20.28
73332;BME280;61560;33.718;73.040;2023-04-25T08:03:59;94790.44;;;33.45;20.53
73332;BME280;61560;33.718;73.040;2023-04-25T08:06:36;94788.00;;;33.49;19.87
73332;BME280;61560;33.718;73.040;2023-04-25T08:09:12;94784.41;;;33.56;19.52
73332;BME280;61560;33.718;73.040;2023-04-25T08:11:42;94774.00;;;33.59;20.60
73332;BME280;61560;33.718;73.040;2023-04-25T08:14:12;94769.31;;;33.76;20.76
73332;BME280;61560;33.718;73.040;2023-04-25T08:16:40;94758.50;;;33.67;20.75
73332;BME280;61560;33.718;73.040;2023-04-25T08:19:08;94763.72;;;33.33;21.37
73332;BME280;61560;33.718;73.040;2023-04-25T08:21:36;94748.50;;;33.16;21.73
73332;BME280;61560;33.718;73.040;2023-04-25T08:24:07;94740.00;;;33.16;22.15
73332;BME280;61560;33.718;73.040;2023-04-25T08:26:38;94744.75;;;33.21;22.34
73332;BME280;61560;33.718;73.040;2023-04-25T08:29:07;94739.06;;;33.21;22.21
73332;BME280;61560;33.718;73.040;2023-04-25T08:31:37;94735.09;;;33.16;22.83
73332;BME280;61560;33.718;73.040;2023-04-25T08:34:05;94731.50;;;33.23;22.75
73332;BME280;61560;33.718;73.040;2023-04-25T08:36:37;94736.06;;;33.34;22.16
73332;BME280;61560;33.718;73.040;2023-04-25T08:39:05;94729.25;;;33.37;21.85
73332;BME280;61560;33.718;73.040;2023-04-25T08:41:41;94722.81;;;33.36;21.54
73332;BME280;61560;33.718;73.040;2023-04-25T08:44:13;94714.81;;;33.20;22.47
73332;BME280;61560;33.718;73.040;2023-04-25T08:46:41;94717.09;;;33.21;22.77
73332;BME280;61560;33.718;73.040;2023-04-25T08:49:17;94710.81;;;33.08;21.70
73332;BME280;61560;33.718;73.040;2023-04-25T08:51:47;94709.31;;;33.07;20.79
73332;BME280;61560;33.718;73.040;2023-04-25T08:54:15;94715.31;;;32.95;21.00
73332;BME280;61560;33.718;73.040;2023-04-25T08:56:45;94711.69;;;32.95;21.23
73332;BME280;61560;33.718;73.040;2023-04-25T08:59:14;94702.13;;;33.05;20.56
73332;BME280;61560;33.718;73.040;2023-04-25T09:01:44;94704.44;;;33.15;21.28
73332;BME280;61560;33.718;73.040;2023-04-25T09:04:12;94694.00;;;33.17;20.20
73332;BME280;61560;33.718;73.040;2023-04-25T09:06:41;94697.03;;;33.19;20.13
73332;BME280;61560;33.718;73.040;2023-04-25T09:09:09;94692.88;;;33.20;20.79
73332;BME280;61560;33.718;73.040;2023-04-25T09:11:39;94679.81;;;33.17;20.24
73332;BME280;61560;33.718;73.040;2023-04-25T09:17:05;94671.88;;;33.23;20.10
73332;BME280;61560;33.718;73.040;2023-04-25T09:19:42;94669.97;;;33.18;19.89
73332;BME280;61560;33.718;73.040;2023-04-25T09:22:17;94662.00;;;33.01;20.01
73332;BME280;61560;33.718;73.040;2023-04-25T09:24:48;94655.13;;;32.89;19.82
73332;BME280;61560;33.718;73.040;2023-04-25T09:27:19;94654.94;;;32.87;20.09
73332;BME280;61560;33.718;73.040;2023-04-25T09:29:59;94647.00;;;32.86;20.35
73332;BME280;61560;33.718;73.040;2023-04-25T09:32:45;94648.66;;;32.74;20.29
73332;BME280;61560;33.718;73.040;2023-04-25T09:35:24;94641.06;;;32.61;20.08
73332;BME280;61560;33.718;73.040;2023-04-25T09:37:56;94640.47;;;32.55;20.23
73332;BME280;61560;33.718;73.040;2023-04-25T09:40:45;94628.75;;;32.59;20.45
73332;BME280;61560;33.718;73.040;2023-04-25T09:43:24;94626.50;;;32.65;20.77
73332;BME280;61560;33.718;73.040;2023-04-25T09:45:54;94617.97;;;32.57;20.89
73332;BME280;61560;33.718;73.040;2023-04-25T09:48:26;94617.78;;;32.63;20.82
73332;BME280;61560;33.718;73.040;2023-04-25T09:51:09;94605.50;;;32.60;20.16
73332;BME280;61560;33.718;73.040;2023-04-25T09:53:39;94601.34;;;32.61;20.93
73332;BME280;61560;33.718;73.040;2023-04-25T09:56:16;94600.97;;;32.72;20.31
73332;BME280;61560;33.718;73.040;2023-04-25T09:58:44;94595.09;;;32.63;20.17
73332;BME280;61560;33.718;73.040;2023-04-25T10:01:12;94595.69;;;32.69;20.30
73332;BME280;61560;33.718;73.040;2023-04-25T10:03:54;94581.84;;;32.58;20.42
73332;BME280;61560;33.718;73.040;2023-04-25T10:06:41;94588.88;;;32.64;20.60
73332;BME280;61560;33.718;73.040;2023-04-25T10:09:11;94579.41;;;32.62;20.83
73332;BME280;61560;33.718;73.040;2023-04-25T10:11:39;94581.47;;;32.54;21.18
73332;BME280;61560;33.718;73.040;2023-04-25T10:14:08;94584.28;;;32.54;20.85
73332;BME280;61560;33.718;73.040;2023-04-25T10:16:35;94569.91;;;32.52;20.73
73332;BME280;61560;33.718;73.040;2023-04-25T10:19:03;94575.25;;;32.55;20.36
73332;BME280;61560;33.718;73.040;2023-04-25T10:21:32;94581.50;;;32.61;20.16
73332;BME280;61560;33.718;73.040;2023-04-25T10:24:00;94574.09;;;32.58;20.87
73332;BME280;61560;33.718;73.040;2023-04-25T10:26:28;94573.72;;;32.62;21.08
73332;BME280;61560;33.718;73.040;2023-04-25T10:29:03;94573.38;;;32.65;20.68
73332;BME280;61560;33.718;73.040;2023-04-25T10:32:20;94564.47;;;32.69;20.78
73332;BME280;61560;33.718;73.040;2023-04-25T10:34:48;94562.03;;;32.73;21.10
73332;BME280;61560;33.718;73.040;2023-04-25T10:37:15;94567.91;;;32.75;20.37
73332;BME280;61560;33.718;73.040;2023-04-25T10:39:43;94558.63;;;32.74;20.54
73332;BME280;61560;33.718;73.040;2023-04-25T10:42:11;94554.06;;;32.64;21.07
73332;BME280;61560;33.718;73.040;2023-04-25T10:44:40;94552.75;;;32.57;20.72
73332;BME280;61560;33.718;73.040;2023-04-25T10:47:07;94560.50;;;32.64;20.61
73332;BME280;61560;33.718;73.040;2023-04-25T10:49:42;94553.28;;;32.56;20.73
73332;BME280;61560;33.718;73.040;2023-04-25T10:55:02;94550.94;;;32.32;20.92
73332;BME280;61560;33.718;73.040;2023-04-25T10:57:39;94556.03;;;32.33;20.73
73332;BME280;61560;33.718;73.040;2023-04-25T11:00:14;94557.38;;;32.40;21.03
73332;BME280;61560;33.718;73.040;2023-04-25T11:05:35;94553.59;;;32.37;20.82
73332;BME280;61560;33.718;73.040;2023-04-25T11:08:03;94537.31;;;32.30;20.89
73332;BME280;61560;33.718;73.040;2023-04-25T11:10:40;94553.78;;;32.32;21.00
73332;BME280;61560;33.718;73.040;2023-04-25T11:13:07;94548.47;;;32.20;20.66
73332;BME280;61560;33.718;73.040;2023-04-25T11:15:34;94544.66;;;32.18;20.60
73332;BME280;61560;33.718;73.040;2023-04-25T11:18:02;94547.31;;;32.23;20.95
73332;BME280;61560;33.718;73.040;2023-04-25T11:20:30;94555.81;;;32.23;21.30
73332;BME280;61560;33.718;73.040;2023-04-25T11:22:59;94549.59;;;32.25;21.91
73332;BME280;61560;33.718;73.040;2023-04-25T11:25:26;94544.66;;;32.18;21.21
73332;BME280;61560;33.718;73.040;2023-04-25T11:27:58;94556.72;;;32.11;21.44
73332;BME280;61560;33.718;73.040;2023-04-25T11:30:27;94555.72;;;31.93;21.87
73332;BME280;61560;33.718;73.040;2023-04-25T11:32:56;94557.53;;;31.83;22.05
73332;BME280;61560;33.718;73.040;2023-04-25T11:35:24;94563.09;;;31.68;22.34
73332;BME280;61560;33.718;73.040;2023-04-25T11:37:52;94552.84;;;31.58;22.74
73332;BME280;61560;33.718;73.040;2023-04-25T11:40:19;94556.03;;;31.54;23.19
73332;BME280;61560;33.718;73.040;2023-04-25T11:42:47;94552.78;;;31.50;23.33
73332;BME280;61560;33.718;73.040;2023-04-25T11:45:15;94552.38;;;31.46;23.05
73332;BME280;61560;33.718;73.040;2023-04-25T11:47:42;94557.84;;;31.44;23.27
73332;BME280;61560;33.718;73.040;2023-04-25T11:50:10;94557.22;;;31.38;23.39
73332;BME280;61560;33.718;73.040;2023-04-25T11:52:45;94557.75;;;31.36;23.46
73332;BME280;61560;33.718;73.040;2023-04-25T11:55:16;94556.81;;;31.34;23.38
73332;BME280;61560;33.718;73.040;2023-04-25T11:57:45;94556.25;;;31.35;23.48
73332;BME280;61560;33.718;73.040;2023-04-25T12:00:16;94565.72;;;31.38;23.35
73332;BME280;61560;33.718;73.040;2023-04-25T12:02:45;94556.88;;;31.41;23.61
73332;BME280;61560;33.718;73.040;2023-04-25T12:05:14;94554.47;;;31.45;23.52
73332;BME280;61560;33.718;73.040;2023-04-25T12:07:42;94553.16;;;31.46;23.85
73332;BME280;61560;33.718;73.040;2023-04-25T12:10:11;94554.09;;;31.49;23.67
73332;BME280;61560;33.718;73.040;2023-04-25T12:12:43;94553.16;;;31.46;23.96
73332;BME280;61560;33.718;73.040;2023-04-25T12:15:24;94551.25;;;31.49;23.73
73332;BME280;61560;33.718;73.040;2023-04-25T12:17:53;94552.59;;;31.48;24.10
73332;BME280;61560;33.718;73.040;2023-04-25T12:20:24;94550.66;;;31.43;23.95
73332;BME280;61560;33.718;73.040;2023-04-25T12:22:52;94551.22;;;31.41;23.64
73332;BME280;61560;33.718;73.040;2023-04-25T12:25:38;94556.13;;;31.41;23.62
73332;BME280;61560;33.718;73.040;2023-04-25T12:28:23;94554.19;;;31.36;24.25
73332;BME280;61560;33.718;73.040;2023-04-25T12:31:04;94555.69;;;31.37;24.55
73332;BME280;61560;33.718;73.040;2023-04-25T12:33:35;94561.16;;;31.35;24.52
73332;BME280;61560;33.718;73.040;2023-04-25T12:36:05;94561.09;;;31.27;24.94
73332;BME280;61560;33.718;73.040;2023-04-25T12:38:39;94564.09;;;31.22;25.30
73332;BME280;61560;33.718;73.040;2023-04-25T12:41:07;94560.84;;;31.18;25.15
73332;BME280;61560;33.718;73.040;2023-04-25T12:43:35;94567.97;;;31.11;25.19
73332;BME280;61560;33.718;73.040;2023-04-25T12:46:02;94564.72;;;31.07;25.06
73332;BME280;61560;33.718;73.040;2023-04-25T12:48:30;94567.16;;;31.03;25.67
73332;BME280;61560;33.718;73.040;2023-04-25T12:50:57;94567.25;;;30.98;25.49
73332;BME280;61560;33.718;73.040;2023-04-25T12:53:24;94564.16;;;30.88;26.05
73332;BME280;61560;33.718;73.040;2023-04-25T12:55:51;94566.91;;;30.81;26.12
73332;BME280;61560;33.718;73.040;2023-04-25T12:58:19;94570.28;;;30.79;25.70
73332;BME280;61560;33.718;73.040;2023-04-25T13:00:46;94572.88;;;30.77;26.13
73332;BME280;61560;33.718;73.040;2023-04-25T13:03:14;94572.81;;;30.69;25.78
73332;BME280;61560;33.718;73.040;2023-04-25T13:05:42;94570.34;;;30.66;26.12
73332;BME280;61560;33.718;73.040;2023-04-25T13:08:10;94575.03;;;30.63;26.28
73332;BME280;61560;33.718;73.040;2023-04-25T13:10:37;94575.91;;;30.58;26.98
73332;BME280;61560;33.718;73.040;2023-04-25T13:13:05;94572.47;;;30.52;27.63
73332;BME280;61560;33.718;73.040;2023-04-25T13:15:32;94569.78;;;30.47;28.07
73332;BME280;61560;33.718;73.040;2023-04-25T13:17:59;94576.63;;;30.38;28.52
73332;BME280;61560;33.718;73.040;2023-04-25T13:20:26;94573.19;;;30.32;28.84